createdAt,value
2022-12-29T00:01:51.395Z,18.48
2022-12-29T00:04:23.952Z,18.47
2022-12-29T00:07:07.715Z,17.15
2022-12-29T00:09:51.380Z,16.77
2022-12-29T00:12:23.223Z,17.10
2022-12-29T00:15:13.852Z,17.10
2022-12-29T00:17:50.348Z,16.30
2022-12-29T00:20:39.482Z,17.92
2022-12-29T00:23:34.144Z,17.88
2022-12-29T00:26:43.383Z,19.55
2022-12-29T00:29:32.688Z,19.88
2022-12-29T00:32:30.616Z,17.38
2022-12-29T00:38:52.685Z,20.80
2022-12-29T00:41:51.345Z,19.00
2022-12-29T00:44:24.549Z,19.35
2022-12-29T00:46:56.561Z,20.20
2022-12-29T00:49:32.214Z,19.15
2022-12-29T00:52:08.718Z,20.58
2022-12-29T00:54:52.460Z,18.13
2022-12-29T00:57:29.783Z,18.63
2022-12-29T00:59:59.213Z,17.98
2022-12-29T01:02:35.869Z,18.77
2022-12-29T01:05:13.375Z,18.67
2022-12-29T01:07:47.801Z,17.75
2022-12-29T01:10:29.014Z,18.20
2022-12-29T01:12:58.394Z,18.02
2022-12-29T01:15:34.746Z,17.73
2022-12-29T01:18:08.399Z,18.35
2022-12-29T01:20:42.405Z,17.38
2022-12-29T01:23:11.652Z,18.52
2022-12-29T01:25:44.270Z,19.85
2022-12-29T01:28:15.396Z,18.60
2022-12-29T01:30:44.325Z,19.42
2022-12-29T01:33:22.290Z,18.35
2022-12-29T01:35:57.471Z,19.27
2022-12-29T01:38:28.433Z,19.58
2022-12-29T01:41:00.699Z,19.45
2022-12-29T01:43:45.196Z,20.00
2022-12-29T01:46:27.892Z,18.13
2022-12-29T01:49:10.103Z,20.35
2022-12-29T01:51:45.558Z,18.95
2022-12-29T01:54:21.230Z,19.40
2022-12-29T01:56:56.807Z,18.95
2022-12-29T01:59:32.376Z,20.42
2022-12-29T02:02:05.054Z,21.15
2022-12-29T02:04:45.614Z,20.10
2022-12-29T02:07:27.426Z,19.45
2022-12-29T02:10:01.145Z,19.00
2022-12-29T02:12:32.530Z,19.30
2022-12-29T02:15:08.775Z,20.90
2022-12-29T02:18:07.366Z,20.83
2022-12-29T02:21:10.002Z,21.15
2022-12-29T02:24:15.043Z,21.27
2022-12-29T02:27:14.121Z,22.08
2022-12-29T02:30:11.881Z,20.70
2022-12-29T02:32:54.968Z,21.52
2022-12-29T02:35:39.731Z,20.95
2022-12-29T02:38:25.416Z,21.75
2022-12-29T02:41:11.213Z,21.63
2022-12-29T02:43:46.429Z,21.27
2022-12-29T02:46:32.272Z,21.92
2022-12-29T02:49:17.878Z,21.88
2022-12-29T02:51:55.723Z,19.98
2022-12-29T02:54:48.772Z,21.10
2022-12-29T02:57:36.503Z,20.10
2022-12-29T03:00:15.949Z,19.25
2022-12-29T03:03:17.711Z,21.45
2022-12-29T03:06:09.224Z,19.45
2022-12-29T03:08:47.216Z,18.60
2022-12-29T03:11:31.566Z,18.73
2022-12-29T03:14:28.883Z,19.38
2022-12-29T03:17:13.377Z,19.27
2022-12-29T03:19:51.674Z,17.55
2022-12-29T03:22:34.368Z,18.85
2022-12-29T03:25:12.200Z,17.77
2022-12-29T03:27:46.011Z,16.95
2022-12-29T03:30:42.452Z,17.23
2022-12-29T03:33:24.959Z,19.25
2022-12-29T03:36:02.849Z,18.83
2022-12-29T03:38:49.949Z,19.33
2022-12-29T03:41:23.001Z,17.75
2022-12-29T03:43:56.883Z,17.85
2022-12-29T03:46:48.071Z,18.67
2022-12-29T03:49:20.860Z,17.95
2022-12-29T03:51:51.966Z,18.33
2022-12-29T03:54:23.850Z,18.13
2022-12-29T03:56:59.598Z,18.13
2022-12-29T03:59:43.877Z,17.65
2022-12-29T04:02:16.059Z,17.73
2022-12-29T04:04:49.720Z,16.58
2022-12-29T04:07:25.663Z,17.10
2022-12-29T04:10:08.033Z,16.45
2022-12-29T04:12:43.555Z,15.35
2022-12-29T04:15:22.804Z,17.73
2022-12-29T04:18:09.551Z,15.88
2022-12-29T04:20:58.269Z,15.52
2022-12-29T04:23:53.908Z,14.50
2022-12-29T04:26:29.994Z,15.52
2022-12-29T04:29:25.768Z,14.45
2022-12-29T04:32:30.965Z,13.95
2022-12-29T04:35:18.867Z,14.77
2022-12-29T04:37:55.549Z,14.77
2022-12-29T04:40:42.439Z,13.60
2022-12-29T04:43:19.941Z,15.00
2022-12-29T04:46:13.784Z,13.73
2022-12-29T04:48:52.533Z,14.32
2022-12-29T04:52:08.953Z,14.77
2022-12-29T04:54:42.946Z,13.63
2022-12-29T04:57:22.073Z,14.38
2022-12-29T05:00:02.652Z,14.23
2022-12-29T05:02:35.891Z,13.43
2022-12-29T05:05:12.145Z,14.15
2022-12-29T05:07:56.860Z,13.82
2022-12-29T05:10:28.747Z,14.20
2022-12-29T05:13:10.028Z,13.85
2022-12-29T05:15:50.371Z,15.50
2022-12-29T05:18:36.035Z,13.73
2022-12-29T05:21:09.561Z,15.18
2022-12-29T05:23:52.323Z,14.68
2022-12-29T05:29:09.267Z,14.40
2022-12-29T05:31:52.222Z,14.27
2022-12-29T05:34:24.914Z,15.88
2022-12-29T05:36:58.678Z,14.98
2022-12-29T05:39:29.143Z,14.90
2022-12-29T05:42:11.579Z,14.18
2022-12-29T05:46:45.479Z,14.27
2022-12-29T05:48:24.534Z,15.25
2022-12-29T05:51:23.495Z,14.07
2022-12-29T05:54:13.537Z,14.80
2022-12-29T05:56:49.957Z,16.05
2022-12-29T05:59:21.606Z,15.38
2022-12-29T06:01:51.902Z,15.27
2022-12-29T06:04:32.812Z,15.73
2022-12-29T06:07:38.873Z,14.75
2022-12-29T06:13:08.388Z,15.25
2022-12-29T06:15:47.182Z,15.82
2022-12-29T06:18:21.379Z,16.05
2022-12-29T06:21:07.024Z,15.25
2022-12-29T06:23:39.757Z,15.43
2022-12-29T06:26:43.036Z,16.25
2022-12-29T06:29:18.095Z,16.73
2022-12-29T06:31:52.417Z,17.00
2022-12-29T06:34:38.451Z,15.57
2022-12-29T06:37:11.685Z,17.45
2022-12-29T06:39:48.433Z,18.92
2022-12-29T06:42:19.429Z,18.30
2022-12-29T06:45:28.719Z,15.95
2022-12-29T06:48:20.444Z,17.08
2022-12-29T06:51:04.710Z,16.15
2022-12-29T06:53:42.849Z,16.83
2022-12-29T06:56:19.632Z,17.55
2022-12-29T06:58:55.981Z,15.07
2022-12-29T07:01:31.568Z,17.33
2022-12-29T07:04:08.969Z,15.77
2022-12-29T07:06:45.362Z,14.80
2022-12-29T07:09:23.453Z,16.45
2022-12-29T07:11:53.763Z,16.17
2022-12-29T07:14:22.863Z,17.35
2022-12-29T07:16:57.959Z,16.42
2022-12-29T07:19:34.789Z,17.15
2022-12-29T07:22:24.491Z,15.52
2022-12-29T07:25:23.075Z,15.48
2022-12-29T07:28:01.120Z,15.27
2022-12-29T07:30:39.882Z,17.17
2022-12-29T07:33:14.092Z,15.40
2022-12-29T07:35:43.598Z,16.92
2022-12-29T07:38:19.449Z,15.50
2022-12-29T07:41:03.963Z,15.05
2022-12-29T07:43:39.498Z,14.98
2022-12-29T07:49:37.126Z,14.30
2022-12-29T07:52:11.246Z,14.48
2022-12-29T07:54:45.007Z,14.25
2022-12-29T07:57:31.303Z,14.98
2022-12-29T08:00:14.379Z,13.27
2022-12-29T08:05:43.265Z,12.80
2022-12-29T08:08:15.641Z,12.50
2022-12-29T08:11:08.456Z,12.90
2022-12-29T08:14:23.957Z,12.02
2022-12-29T08:17:01.597Z,11.77
2022-12-29T08:19:51.799Z,13.07
2022-12-29T08:22:34.205Z,11.65
2022-12-29T08:25:10.072Z,11.30
2022-12-29T08:27:54.179Z,11.02
2022-12-29T08:30:35.377Z,10.13
2022-12-29T08:33:20.283Z,11.52
2022-12-29T08:36:11.512Z,10.15
2022-12-29T08:42:00.449Z,11.00
2022-12-29T08:44:42.472Z,47.63
2022-12-29T08:47:44.419Z,24.48
2022-12-29T08:50:22.411Z,13.70
2022-12-29T08:53:06.327Z,16.08
2022-12-29T08:55:36.531Z,15.27
2022-12-29T08:58:16.118Z,16.75
2022-12-29T09:01:23.431Z,25.90
2022-12-29T09:04:17.824Z,18.92
2022-12-29T09:07:03.897Z,27.85
2022-12-29T09:09:45.138Z,39.15
2022-12-29T09:12:30.209Z,27.95
2022-12-29T09:15:10.265Z,16.25
2022-12-29T09:18:16.291Z,15.38
2022-12-29T09:21:16.027Z,16.23
2022-12-29T09:24:16.668Z,11.73
2022-12-29T09:26:54.567Z,11.35
2022-12-29T09:29:45.431Z,11.32
2022-12-29T09:32:22.936Z,11.68
2022-12-29T09:35:06.291Z,11.88
2022-12-29T09:37:40.278Z,11.43
2022-12-29T09:40:24.550Z,10.65
2022-12-29T09:43:35.852Z,11.75
2022-12-29T09:46:30.808Z,11.23
2022-12-29T09:49:34.404Z,11.52
2022-12-29T09:52:12.043Z,13.18
2022-12-29T09:55:06.293Z,12.45
2022-12-29T09:57:44.743Z,13.60
2022-12-29T10:00:22.528Z,13.30
2022-12-29T10:02:57.635Z,12.88
2022-12-29T10:05:33.852Z,11.85
2022-12-29T10:08:19.106Z,11.90
2022-12-29T10:11:35.158Z,10.85
2022-12-29T10:14:39.039Z,10.68
2022-12-29T10:17:31.496Z,10.73
2022-12-29T10:20:31.881Z,10.35
2022-12-29T10:23:30.525Z,9.80
2022-12-29T10:26:23.264Z,9.60
2022-12-29T10:29:15.763Z,10.25
2022-12-29T10:32:04.475Z,10.30
2022-12-29T10:35:13.232Z,10.57
2022-12-29T10:42:01.950Z,9.80
2022-12-29T10:48:38.429Z,8.73
2022-12-29T10:51:38.579Z,9.45
2022-12-29T10:54:53.978Z,9.55
2022-12-29T10:59:01.828Z,9.77
2022-12-29T11:01:30.623Z,10.52
2022-12-29T11:04:35.689Z,10.48
2022-12-29T11:07:29.207Z,9.75
2022-12-29T11:10:29.239Z,9.88
2022-12-29T11:13:46.493Z,9.98
2022-12-29T11:16:48.231Z,10.13
2022-12-29T11:19:41.073Z,9.60
2022-12-29T11:22:28.444Z,9.85
2022-12-29T11:25:26.234Z,9.73
2022-12-29T11:28:10.325Z,9.65
2022-12-29T11:30:53.650Z,9.80
2022-12-29T11:33:49.745Z,9.32
2022-12-29T11:36:25.647Z,9.05
2022-12-29T11:39:25.143Z,9.45
2022-12-29T11:42:18.158Z,9.43
2022-12-29T11:45:17.678Z,10.13
2022-12-29T11:48:18.184Z,9.32
2022-12-29T11:51:25.588Z,9.40
2022-12-29T11:54:16.207Z,8.77
2022-12-29T12:50:27.845Z,12.98
2022-12-29T12:53:19.591Z,12.95
2022-12-29T12:56:27.135Z,13.57
2022-12-29T12:59:09.856Z,15.13
2022-12-29T13:01:48.387Z,15.18
2022-12-29T13:04:44.248Z,14.32
2022-12-29T13:07:27.025Z,13.05
2022-12-29T13:10:21.898Z,13.98
2022-12-29T13:12:58.240Z,14.77
2022-12-29T13:15:44.624Z,14.98
2022-12-29T13:18:24.541Z,16.52
2022-12-29T13:21:01.344Z,13.40
2022-12-29T13:23:43.034Z,12.88
2022-12-29T13:26:17.809Z,11.65
2022-12-29T13:28:53.932Z,13.85
2022-12-29T13:31:33.000Z,15.80
2022-12-29T13:34:09.492Z,15.90
2022-12-29T13:36:44.672Z,13.27
2022-12-29T13:39:22.171Z,11.45
2022-12-29T13:41:56.094Z,12.05
2022-12-29T13:44:33.273Z,13.90
2022-12-29T13:47:16.665Z,12.45
2022-12-29T13:49:46.850Z,14.95
2022-12-29T13:52:24.191Z,15.85
2022-12-29T13:55:04.781Z,13.45
2022-12-29T13:57:43.865Z,11.68
2022-12-29T14:00:17.885Z,11.88
2022-12-29T14:03:12.753Z,15.95
2022-12-29T14:05:43.306Z,12.00
2022-12-29T14:08:20.255Z,14.10
2022-12-29T14:10:54.713Z,12.13
2022-12-29T14:13:27.877Z,13.38
2022-12-29T14:16:00.009Z,13.15
2022-12-29T14:18:31.340Z,13.85
2022-12-29T14:21:04.315Z,12.73
2022-12-29T14:23:47.010Z,13.00
2022-12-29T14:26:21.250Z,14.13
2022-12-29T14:28:51.588Z,14.82
2022-12-29T14:31:42.500Z,12.30
2022-12-29T14:34:41.198Z,14.30
2022-12-29T14:37:28.469Z,14.07
2022-12-29T14:40:19.057Z,13.85
2022-12-29T14:42:53.118Z,12.90
2022-12-29T14:45:31.262Z,14.38
2022-12-29T14:48:01.620Z,14.57
2022-12-29T14:50:42.136Z,14.70
2022-12-29T14:53:46.674Z,14.85
2022-12-29T14:56:18.182Z,14.35
2022-12-29T14:58:53.869Z,15.98
2022-12-29T15:01:29.787Z,14.85
2022-12-29T15:04:06.855Z,16.40
2022-12-29T15:06:42.962Z,15.98
2022-12-29T15:09:25.068Z,15.80
2022-12-29T15:11:58.341Z,15.15
2022-12-29T15:14:34.696Z,15.68
2022-12-29T15:17:14.083Z,14.50
2022-12-29T15:19:43.361Z,14.90
2022-12-29T15:22:14.966Z,14.93
2022-12-29T15:24:46.471Z,14.90
2022-12-29T15:27:17.967Z,14.70
2022-12-29T15:29:50.674Z,13.70
2022-12-29T15:32:23.903Z,14.55
2022-12-29T15:34:56.582Z,13.52
2022-12-29T15:37:29.134Z,13.35
2022-12-29T15:40:00.429Z,12.98
2022-12-29T15:43:18.032Z,12.98
2022-12-29T15:45:51.195Z,13.30
2022-12-29T15:48:24.067Z,12.77
2022-12-29T15:50:55.727Z,13.27
2022-12-29T15:53:30.608Z,11.98
2022-12-29T15:56:03.757Z,11.73
2022-12-29T15:58:41.261Z,12.30
2022-12-29T16:04:10.592Z,11.20
2022-12-29T16:06:41.230Z,10.07
2022-12-29T16:09:18.895Z,11.25
2022-12-29T16:11:54.205Z,10.77
2022-12-29T16:14:28.601Z,10.13
2022-12-29T16:17:02.969Z,9.88
2022-12-29T16:19:37.552Z,9.13
2022-12-29T16:22:13.501Z,9.98
2022-12-29T16:24:43.048Z,9.57
2022-12-29T16:27:21.366Z,9.75
2022-12-29T16:29:54.064Z,9.25
2022-12-29T16:32:30.531Z,10.68
2022-12-29T16:35:14.768Z,11.52
2022-12-29T16:37:43.952Z,11.18
2022-12-29T16:40:32.445Z,10.57
2022-12-29T16:43:03.045Z,11.05
2022-12-29T16:46:26.006Z,10.57
2022-12-29T16:49:00.413Z,10.57
2022-12-29T16:51:37.757Z,10.63
2022-12-29T16:54:08.602Z,11.35
2022-12-29T16:56:46.372Z,11.13
2022-12-29T16:59:32.213Z,11.77
2022-12-29T17:02:03.735Z,11.68
2022-12-29T17:04:34.312Z,11.90
2022-12-29T17:07:03.534Z,12.10
2022-12-29T17:09:33.657Z,12.80
2022-12-29T17:12:10.747Z,14.32
2022-12-29T17:14:44.039Z,14.40
2022-12-29T17:17:18.033Z,14.57
2022-12-29T17:19:51.800Z,15.30
2022-12-29T17:22:25.399Z,15.38
2022-12-29T17:24:55.519Z,16.08
2022-12-29T17:27:29.895Z,16.38
2022-12-29T17:30:02.296Z,16.95
2022-12-29T17:32:31.955Z,17.52
2022-12-29T17:37:33.734Z,16.42
2022-12-29T17:40:03.769Z,18.42
2022-12-29T17:42:35.094Z,18.55
2022-12-29T17:45:05.545Z,18.00
2022-12-29T17:47:34.636Z,18.60
2022-12-29T17:50:05.621Z,19.00
2022-12-29T17:52:34.940Z,17.70
2022-12-29T17:55:03.957Z,18.63
2022-12-29T17:57:32.764Z,20.85
2022-12-29T18:00:01.894Z,19.27
2022-12-29T18:02:41.499Z,18.63
2022-12-29T18:05:20.234Z,21.70
2022-12-29T18:07:49.741Z,20.50
2022-12-29T18:10:19.203Z,20.85
2022-12-29T18:12:50.427Z,21.45
2022-12-29T18:15:23.491Z,20.63
2022-12-29T18:18:02.893Z,20.73
2022-12-29T18:20:36.846Z,21.15
2022-12-29T18:23:06.250Z,21.30
2022-12-29T18:25:44.068Z,22.08
2022-12-29T18:28:13.575Z,23.45
2022-12-29T18:30:43.045Z,22.35
2022-12-29T18:33:23.303Z,24.13
2022-12-29T18:35:59.416Z,22.45
2022-12-29T18:38:30.007Z,22.33
2022-12-29T18:41:00.300Z,21.75
2022-12-29T18:43:33.492Z,22.73
2022-12-29T18:46:02.667Z,22.20
2022-12-29T18:54:43.816Z,21.80
2022-12-29T18:57:14.254Z,20.02
2022-12-29T18:59:43.512Z,20.77
2022-12-29T19:02:18.563Z,18.05
2022-12-29T19:04:52.731Z,19.85
2022-12-29T19:07:23.907Z,29.13
2022-12-29T19:09:53.154Z,23.55
2022-12-29T19:12:28.213Z,19.27
2022-12-29T19:14:57.385Z,52.00
2022-12-29T19:17:26.137Z,70.93
2022-12-29T19:19:54.929Z,30.75
2022-12-29T19:22:25.520Z,125.70
2022-12-29T19:24:59.712Z,44.22
2022-12-29T19:27:31.175Z,52.72
2022-12-29T19:30:00.464Z,23.48
2022-12-29T19:32:29.243Z,66.60
2022-12-29T19:34:58.258Z,25.20
2022-12-29T19:37:28.621Z,23.00
2022-12-29T19:39:57.984Z,39.90
2022-12-29T19:42:26.902Z,23.52
2022-12-29T19:44:55.920Z,18.95
2022-12-29T19:47:30.132Z,20.70
2022-12-29T19:50:01.538Z,18.75
2022-12-29T19:55:01.744Z,18.88
2022-12-29T19:57:32.432Z,20.08
2022-12-29T20:00:01.837Z,19.67
2022-12-29T20:02:41.129Z,21.50
2022-12-29T20:05:11.848Z,22.08
2022-12-29T20:07:42.527Z,21.55
2022-12-29T20:10:12.876Z,21.50
2022-12-29T20:12:42.343Z,20.35
2022-12-29T20:15:12.704Z,21.33
2022-12-29T20:20:31.245Z,24.55
2022-12-29T20:23:01.856Z,28.08
2022-12-29T20:25:47.489Z,23.38
2022-12-29T20:28:18.380Z,23.92
2022-12-29T20:30:55.422Z,24.65
2022-12-29T20:33:24.975Z,35.50
2022-12-29T20:35:54.511Z,28.35
2022-12-29T20:38:26.454Z,34.65
2022-12-29T20:40:57.705Z,31.88
2022-12-29T20:43:26.640Z,39.08
2022-12-29T20:45:55.863Z,35.47
2022-12-29T20:48:24.827Z,33.15
2022-12-29T20:50:54.174Z,44.33
2022-12-29T20:53:24.417Z,47.47
2022-12-29T20:55:53.240Z,35.78
2022-12-29T20:58:24.611Z,54.08
2022-12-29T21:00:54.794Z,25.33
2022-12-29T21:03:26.001Z,26.33
2022-12-29T21:05:55.538Z,26.00
2022-12-29T21:08:26.538Z,25.75
2022-12-29T21:10:55.606Z,27.02
2022-12-29T21:13:24.702Z,24.52
2022-12-29T21:15:58.470Z,26.25
2022-12-29T21:18:27.839Z,24.38
2022-12-29T21:20:58.007Z,25.63
2022-12-29T21:23:29.869Z,22.77
2022-12-29T21:26:01.001Z,22.90
2022-12-29T21:28:30.471Z,25.63
2022-12-29T21:31:09.880Z,24.95
2022-12-29T21:33:39.288Z,24.42
2022-12-29T21:36:10.883Z,22.95
2022-12-29T21:38:42.975Z,22.90
2022-12-29T21:41:15.146Z,23.08
2022-12-29T21:44:05.515Z,24.10
2022-12-29T21:46:34.240Z,26.85
2022-12-29T21:49:03.347Z,24.27
2022-12-29T21:51:50.231Z,25.15
2022-12-29T21:54:42.433Z,25.73
2022-12-29T21:57:33.979Z,25.90
2022-12-29T22:00:22.944Z,25.50
2022-12-29T22:03:16.485Z,25.35
2022-12-29T22:06:06.893Z,27.05
2022-12-29T22:08:53.588Z,24.50
2022-12-29T22:11:41.534Z,27.50
2022-12-29T22:14:20.159Z,28.02
2022-12-29T22:16:50.232Z,26.47
2022-12-29T22:19:20.299Z,26.20
2022-12-29T22:21:53.383Z,26.65
2022-12-29T22:24:24.241Z,28.77
2022-12-29T22:26:54.871Z,30.52
2022-12-29T22:29:23.993Z,29.65
2022-12-29T22:31:52.952Z,29.38
2022-12-29T22:34:22.297Z,25.80
2022-12-29T22:36:51.865Z,29.52
2022-12-29T22:39:21.135Z,24.17
2022-12-29T22:41:51.594Z,25.15
2022-12-29T22:44:23.707Z,24.15
2022-12-29T22:46:54.063Z,26.40
2022-12-29T22:49:24.407Z,21.55
2022-12-29T22:51:54.292Z,23.67
2022-12-29T22:54:23.980Z,23.20
2022-12-29T22:59:23.537Z,23.45
2022-12-29T23:01:53.192Z,24.25
2022-12-29T23:07:11.298Z,25.98
2022-12-29T23:09:40.616Z,26.88
2022-12-29T23:12:09.878Z,25.90
2022-12-29T23:14:40.346Z,22.92
2022-12-29T23:17:09.731Z,26.15
2022-12-29T23:19:39.218Z,25.13
2022-12-29T23:22:10.112Z,25.88
2022-12-29T23:24:39.196Z,25.48
2022-12-29T23:27:08.584Z,24.38
2022-12-29T23:29:40.100Z,23.95
2022-12-29T23:32:09.730Z,26.38
2022-12-29T23:34:39.587Z,23.33
2022-12-29T23:37:08.838Z,24.25
2022-12-29T23:39:38.000Z,26.25
2022-12-29T23:42:07.542Z,27.05
2022-12-29T23:47:09.555Z,23.80
2022-12-29T23:49:39.261Z,25.38
2022-12-29T23:52:08.863Z,23.88
2022-12-29T23:57:06.200Z,25.23
2022-12-29T23:59:35.333Z,24.42
